To NAV CANADA Home Page Login to a new session Search on AWWS site Feedback and Comments Disclaimer Vers la page française équivalente Tips FAQ What's new on the site To the Forecasts and Observations / NOTAM section To "File a Flight Plan" website Publications and other links Update of the User's profile FIC Telephone Numbers My Weather Data Folder Route Weather Data Regional Weather Data Local Weather Data To the Forecasts and Observations / NOTAM section
Request Generated 05/26/2016 at 14:25:20 UTC . Weather information available at that time is displayed.

METAR/TAF

SLAVE LAKE/AB    (show WxCam)

METAR CYZH 261400Z AUTO 34004KT 9SM CLR 12/09 A2989 RMK SLP133
DENSITY ALT 2000FT=
METAR CYZH 261300Z AUTO 00000KT 9SM CLR 11/08 A2990 RMK SLP133=
METAR CYZH 261200Z AUTO VRB02KT 9SM CLR 08/07 A2990 RMK SLP133=

TAF CYZH 261238Z 2613/2701 VRB03KT P6SM SCT140 BKN220
BECMG 2613/2615 29006KT
FM261800 30006KT P6SM SCT040 TEMPO 2618/2621 P6SM -SHRA BKN040
FM262100 30005KT P6SM -SHRA BKN030 PROB30 2621/2624 VRB15G25KT
5SM TSRA BKN030CB
RMK FCST BASED ON AUTO OBS. NXT FCST BY 261900Z=
Your time UTC time
Weather data provided by Environment Canada and NAV CANADA